createdAt,value
2023-06-19T00:01:45.427Z,63.87
2023-06-19T00:02:45.787Z,63.87
2023-06-19T00:03:45.478Z,63.59
2023-06-19T00:04:45.477Z,63.78
2023-06-19T00:05:45.609Z,63.68
2023-06-19T00:06:45.543Z,63.59
2023-06-19T00:07:45.628Z,63.59
2023-06-19T00:08:45.616Z,63.87
2023-06-19T00:09:45.984Z,63.68
2023-06-19T00:10:45.676Z,63.68
2023-06-19T00:11:45.720Z,63.29
2023-06-19T00:12:45.798Z,63.49
2023-06-19T00:13:45.827Z,63.29
2023-06-19T00:14:45.802Z,63.20
2023-06-19T00:15:45.846Z,63.39
2023-06-19T00:16:46.335Z,63.68
2023-06-19T00:17:45.920Z,63.39
2023-06-19T00:18:45.934Z,63.10
2023-06-19T00:19:45.961Z,63.20
2023-06-19T00:20:45.999Z,63.10
2023-06-19T00:21:46.023Z,63.29
2023-06-19T00:22:46.069Z,63.29
2023-06-19T00:23:46.092Z,62.81
2023-06-19T00:24:46.119Z,62.71
2023-06-19T00:25:46.170Z,63.00
2023-06-19T00:26:46.210Z,63.20
2023-06-19T00:27:46.556Z,63.29
2023-06-19T00:28:46.263Z,63.29
2023-06-19T00:29:46.602Z,63.00
2023-06-19T00:30:46.353Z,63.20
2023-06-19T00:32:46.421Z,63.10
2023-06-19T00:33:46.436Z,63.00
2023-06-19T00:34:46.478Z,62.81
2023-06-19T00:35:46.488Z,62.81
2023-06-19T00:36:46.529Z,63.10
2023-06-19T00:37:46.569Z,63.00
2023-06-19T00:38:46.776Z,63.10
2023-06-19T00:39:46.643Z,62.90
2023-06-19T00:40:46.972Z,62.71
2023-06-19T00:41:46.970Z,62.81
2023-06-19T00:42:46.700Z,63.10
2023-06-19T00:44:46.766Z,62.81
2023-06-19T00:45:46.861Z,62.68
2023-06-19T00:46:46.871Z,62.51
2023-06-19T00:47:47.296Z,62.48
2023-06-19T00:48:46.913Z,62.48
2023-06-19T00:49:46.929Z,62.38
2023-06-19T00:50:47.016Z,62.51
2023-06-19T00:51:46.994Z,62.58
2023-06-19T00:52:47.436Z,62.51
2023-06-19T00:53:47.062Z,62.61
2023-06-19T00:54:47.730Z,62.29
2023-06-19T00:55:47.228Z,62.58
2023-06-19T00:56:47.212Z,62.41
2023-06-19T00:57:47.257Z,62.32
2023-06-19T00:58:47.602Z,62.51
2023-06-19T00:59:47.292Z,62.58
2023-06-19T01:00:56.015Z,62.48
2023-06-19T01:01:47.799Z,62.41
2023-06-19T01:02:47.879Z,62.58
2023-06-19T01:03:47.461Z,62.61
2023-06-19T01:04:47.443Z,62.48
2023-06-19T01:05:47.454Z,62.61
2023-06-19T01:06:47.531Z,62.71
2023-06-19T01:07:47.501Z,62.38
2023-06-19T01:08:47.739Z,62.48
2023-06-19T01:09:47.582Z,62.81
2023-06-19T01:10:47.624Z,62.90
2023-06-19T01:11:47.640Z,62.90
2023-06-19T01:12:47.668Z,62.71
2023-06-19T01:13:47.707Z,62.90
2023-06-19T01:14:48.075Z,62.87
2023-06-19T01:15:47.797Z,62.87
2023-06-19T01:16:47.824Z,62.97
2023-06-19T01:17:47.871Z,62.87
2023-06-19T01:18:47.858Z,62.87
2023-06-19T01:19:47.888Z,63.00
2023-06-19T01:20:47.964Z,62.81
2023-06-19T01:21:48.257Z,62.97
2023-06-19T01:22:48.043Z,63.26
2023-06-19T01:23:48.038Z,62.97
2023-06-19T01:24:48.048Z,62.87
2023-06-19T01:25:48.113Z,63.26
2023-06-19T01:26:48.114Z,62.97
2023-06-19T01:27:48.152Z,62.97
2023-06-19T01:28:48.484Z,62.97
2023-06-19T01:29:48.413Z,63.26
2023-06-19T01:30:48.243Z,63.26
2023-06-19T01:31:48.286Z,62.97
2023-06-19T01:32:48.348Z,63.07
2023-06-19T01:33:48.362Z,63.17
2023-06-19T01:34:48.369Z,63.07
2023-06-19T01:35:48.404Z,62.77
2023-06-19T01:36:48.433Z,62.87
2023-06-19T01:37:48.507Z,62.87
2023-06-19T01:38:48.498Z,62.97
2023-06-19T01:39:48.526Z,63.17
2023-06-19T01:40:48.559Z,63.17
2023-06-19T01:41:48.901Z,63.26
2023-06-19T01:42:48.622Z,63.07
2023-06-19T01:43:48.667Z,63.17
2023-06-19T01:44:48.702Z,63.17
2023-06-19T01:45:48.781Z,62.87
2023-06-19T01:46:48.881Z,63.07
2023-06-19T01:47:49.118Z,63.17
2023-06-19T01:48:48.815Z,63.36
2023-06-19T01:49:48.885Z,63.36
2023-06-19T01:50:48.890Z,63.26
2023-06-19T01:51:48.940Z,63.26
2023-06-19T01:52:48.953Z,63.26
2023-06-19T01:53:49.274Z,63.45
2023-06-19T01:54:49.050Z,63.45
2023-06-19T01:55:49.045Z,63.84
2023-06-19T01:56:49.281Z,63.55
2023-06-19T01:57:49.096Z,63.75
2023-06-19T01:58:49.139Z,63.65
2023-06-19T01:59:49.169Z,63.84
2023-06-19T02:00:49.211Z,63.84
2023-06-19T02:01:49.229Z,63.65
2023-06-19T02:02:49.314Z,63.45
2023-06-19T02:03:49.371Z,63.55
2023-06-19T02:04:49.328Z,63.36
2023-06-19T02:05:49.627Z,63.55
2023-06-19T02:07:49.831Z,63.75
2023-06-19T02:09:49.487Z,63.75
2023-06-19T02:10:49.581Z,64.43
2023-06-19T02:11:49.591Z,64.53
2023-06-19T02:12:49.823Z,64.23
2023-06-19T02:13:49.910Z,64.23
2023-06-19T02:14:49.787Z,64.33
2023-06-19T02:15:49.783Z,64.33
2023-06-19T02:16:49.720Z,64.72
2023-06-19T02:17:49.757Z,64.72
2023-06-19T02:18:49.768Z,64.33
2023-06-19T02:19:49.806Z,64.81
2023-06-19T02:20:50.135Z,64.81
2023-06-19T02:21:49.897Z,64.62
2023-06-19T02:22:49.900Z,64.43
2023-06-19T02:23:49.932Z,64.62
2023-06-19T02:24:50.169Z,64.53
2023-06-19T02:25:50.019Z,64.53
2023-06-19T02:26:50.033Z,64.53
2023-06-19T02:27:50.363Z,64.62
2023-06-19T02:28:50.117Z,64.53
2023-06-19T02:29:50.157Z,64.43
2023-06-19T02:30:50.149Z,64.62
2023-06-19T02:31:50.182Z,64.43
2023-06-19T02:32:50.262Z,64.53
2023-06-19T02:33:50.253Z,65.11
2023-06-19T02:34:50.580Z,64.72
2023-06-19T02:35:50.311Z,64.43
2023-06-19T02:36:50.374Z,64.72
2023-06-19T02:37:50.394Z,64.81
2023-06-19T02:38:50.406Z,64.62
2023-06-19T02:39:50.470Z,64.53
2023-06-19T02:40:50.474Z,64.53
2023-06-19T02:41:50.814Z,64.81
2023-06-19T02:42:50.541Z,64.72
2023-06-19T02:44:50.593Z,64.81
2023-06-19T02:46:50.705Z,64.81
2023-06-19T02:47:50.721Z,64.53
2023-06-19T02:48:51.025Z,64.62
2023-06-19T02:49:50.761Z,64.53
2023-06-19T02:50:50.793Z,64.62
2023-06-19T02:51:51.154Z,64.62
2023-06-19T02:52:50.870Z,64.62
2023-06-19T02:53:50.929Z,64.62
2023-06-19T02:54:50.918Z,64.62
2023-06-19T02:55:50.951Z,64.53
2023-06-19T02:56:51.315Z,64.72
2023-06-19T02:57:51.047Z,64.81
2023-06-19T02:58:51.053Z,64.62
2023-06-19T02:59:51.149Z,64.62
2023-06-19T03:00:51.163Z,64.14
2023-06-19T03:01:51.443Z,64.23
2023-06-19T03:02:51.233Z,64.33
2023-06-19T03:03:51.262Z,64.14
2023-06-19T03:04:51.260Z,64.33
2023-06-19T03:05:51.304Z,64.43
2023-06-19T03:06:51.299Z,64.23
2023-06-19T03:07:51.574Z,64.23
2023-06-19T03:08:51.360Z,64.04
2023-06-19T03:09:51.414Z,64.53
2023-06-19T03:10:51.418Z,64.53
2023-06-19T03:11:51.457Z,64.53
2023-06-19T03:12:51.482Z,64.53
2023-06-19T03:13:52.164Z,64.53
2023-06-19T03:14:51.546Z,64.43
2023-06-19T03:15:51.574Z,64.33
2023-06-19T03:17:51.676Z,64.33
2023-06-19T03:18:53.316Z,64.43
2023-06-19T03:20:51.744Z,64.33
2023-06-19T03:21:52.017Z,63.65
2023-06-19T03:22:51.805Z,63.65
2023-06-19T03:23:51.908Z,63.55
2023-06-19T03:24:51.882Z,63.36
2023-06-19T03:25:52.235Z,63.32
2023-06-19T03:26:51.937Z,63.52
2023-06-19T03:27:52.264Z,63.52
2023-06-19T03:28:51.998Z,63.62
2023-06-19T03:29:52.028Z,63.71
2023-06-19T03:30:52.093Z,63.52
2023-06-19T03:31:52.428Z,63.68
2023-06-19T03:32:52.170Z,63.68
2023-06-19T03:33:52.225Z,64.07
2023-06-19T03:34:52.434Z,64.36
2023-06-19T03:35:52.213Z,64.56
2023-06-19T03:36:52.249Z,64.56
2023-06-19T03:37:52.320Z,64.85
2023-06-19T03:38:52.310Z,64.65
2023-06-19T03:39:52.342Z,65.14
2023-06-19T03:40:52.370Z,65.33
2023-06-19T03:41:52.761Z,65.20
2023-06-19T03:42:52.447Z,64.92
2023-06-19T03:43:52.802Z,65.50
2023-06-19T03:44:52.500Z,65.40
2023-06-19T03:45:52.628Z,65.59
2023-06-19T03:46:52.622Z,65.89
2023-06-19T03:47:52.749Z,66.17
2023-06-19T03:48:52.931Z,65.98
2023-06-19T03:49:54.665Z,66.24
2023-06-19T03:50:52.705Z,66.44
2023-06-19T03:51:52.720Z,66.34
2023-06-19T03:52:52.746Z,66.53
2023-06-19T03:53:52.777Z,66.37
2023-06-19T03:54:52.818Z,66.63
2023-06-19T03:55:56.316Z,66.72
2023-06-19T03:57:52.928Z,67.02
2023-06-19T03:58:52.933Z,67.11
2023-06-19T03:59:52.967Z,67.50
2023-06-19T04:00:53.015Z,67.11
2023-06-19T04:01:53.073Z,67.11
2023-06-19T04:02:53.459Z,67.02
2023-06-19T04:03:53.158Z,67.60
2023-06-19T04:04:53.168Z,67.69
2023-06-19T04:05:53.157Z,67.69
2023-06-19T04:06:53.524Z,67.99
2023-06-19T04:07:53.260Z,67.89
2023-06-19T04:08:53.281Z,67.99
2023-06-19T04:09:53.313Z,67.79
2023-06-19T04:10:53.357Z,68.28
2023-06-19T04:11:53.355Z,68.86
2023-06-19T04:12:53.372Z,68.66
2023-06-19T04:13:53.427Z,68.76
2023-06-19T04:14:53.477Z,68.66
2023-06-19T04:15:53.852Z,68.57
2023-06-19T04:16:53.594Z,68.96
2023-06-19T04:17:53.590Z,68.57
2023-06-19T04:18:53.897Z,68.76
2023-06-19T04:19:53.628Z,69.06
2023-06-19T04:20:53.630Z,69.15
2023-06-19T04:21:53.694Z,68.76
2023-06-19T04:22:54.027Z,68.54
2023-06-19T04:23:53.812Z,68.73
2023-06-19T04:24:53.758Z,68.66
2023-06-19T04:25:53.811Z,68.76
2023-06-19T04:26:54.190Z,68.73
2023-06-19T04:27:53.849Z,68.44
2023-06-19T04:28:53.869Z,68.18
2023-06-19T04:29:53.928Z,68.92
2023-06-19T04:30:53.933Z,68.57
2023-06-19T04:32:54.096Z,67.89
2023-06-19T04:33:54.053Z,68.28
2023-06-19T04:34:54.053Z,68.37
2023-06-19T04:35:54.396Z,68.28
2023-06-19T04:37:54.151Z,68.86
2023-06-19T04:38:54.219Z,68.57
2023-06-19T04:39:54.548Z,68.96
2023-06-19T04:41:54.323Z,68.08
2023-06-19T04:42:54.337Z,68.18
2023-06-19T04:43:54.332Z,68.76
2023-06-19T04:44:54.394Z,68.66
2023-06-19T04:45:54.427Z,68.18
2023-06-19T04:46:54.426Z,68.28
2023-06-19T04:47:54.788Z,68.47
2023-06-19T04:48:54.485Z,68.37
2023-06-19T04:49:54.525Z,68.76
2023-06-19T04:50:54.761Z,68.86
2023-06-19T04:51:54.615Z,68.96
2023-06-19T04:52:54.712Z,68.47
2023-06-19T04:53:54.986Z,67.79
2023-06-19T04:54:54.974Z,68.47
2023-06-19T04:55:54.707Z,68.66
2023-06-19T04:56:54.771Z,68.86
2023-06-19T04:57:55.106Z,68.47
2023-06-19T04:58:54.802Z,68.37
2023-06-19T04:59:54.840Z,68.18
2023-06-19T05:00:54.859Z,69.06
2023-06-19T05:01:55.032Z,68.86
2023-06-19T05:03:54.995Z,68.76
2023-06-19T05:04:55.046Z,69.24
2023-06-19T05:05:55.013Z,69.24
2023-06-19T05:06:55.051Z,68.57
2023-06-19T05:07:55.338Z,68.57
2023-06-19T05:08:55.114Z,69.15
2023-06-19T05:09:55.138Z,69.24
2023-06-19T05:10:55.178Z,69.24
2023-06-19T05:11:55.206Z,69.73
2023-06-19T05:12:55.236Z,69.54
2023-06-19T05:13:55.276Z,69.34
2023-06-19T05:15:55.693Z,69.44
2023-06-19T05:16:55.392Z,69.24
2023-06-19T14:28:16.375Z,56.56
2023-06-19T14:29:16.437Z,56.68
2023-06-19T14:30:16.494Z,56.75
2023-06-19T14:31:16.452Z,56.95
2023-06-19T14:32:16.491Z,56.95
2023-06-19T14:33:16.538Z,56.75
2023-06-19T14:34:16.564Z,56.77
2023-06-19T14:35:16.596Z,56.38
2023-06-19T14:36:16.634Z,56.58
2023-06-19T14:37:16.655Z,56.77
2023-06-19T14:38:16.758Z,56.29
2023-06-19T14:39:16.735Z,56.38
2023-06-19T14:40:17.081Z,56.87
2023-06-19T14:41:17.104Z,56.77
2023-06-19T14:42:16.841Z,56.77
2023-06-19T14:43:16.887Z,56.20
2023-06-19T14:44:16.984Z,56.29
2023-06-19T14:45:16.940Z,55.80
2023-06-19T14:46:33.424Z,56.10
2023-06-19T14:47:17.366Z,56.38
2023-06-19T14:48:17.129Z,56.29
2023-06-19T14:49:17.092Z,55.61
2023-06-19T14:50:17.117Z,56.20
2023-06-19T14:51:17.165Z,56.29
2023-06-19T14:52:17.190Z,56.00
2023-06-19T14:53:17.231Z,56.10
2023-06-19T14:54:17.267Z,55.80
2023-06-19T14:55:17.303Z,55.71
2023-06-19T14:56:17.372Z,56.00
2023-06-19T14:57:17.380Z,56.02
2023-06-19T14:58:17.425Z,56.02
2023-06-19T14:59:17.456Z,55.83
2023-06-19T15:00:17.505Z,55.63
2023-06-19T15:01:17.549Z,55.93
2023-06-19T15:02:17.573Z,55.54
2023-06-19T15:03:17.667Z,55.54
2023-06-19T15:04:17.950Z,55.54
2023-06-19T15:05:17.686Z,55.34
2023-06-19T15:06:17.952Z,55.18
2023-06-19T15:07:17.742Z,55.34
2023-06-19T15:08:17.972Z,54.98
2023-06-19T15:10:17.855Z,55.83
2023-06-19T15:11:17.893Z,55.37
2023-06-19T15:12:17.927Z,55.18
2023-06-19T15:13:17.966Z,56.05
2023-06-19T15:14:17.999Z,54.88
2023-06-19T15:15:18.052Z,55.08
2023-06-19T15:16:18.097Z,55.27
2023-06-19T15:17:18.128Z,55.08
2023-06-19T15:18:18.286Z,55.27
2023-06-19T15:19:18.214Z,55.18
2023-06-19T15:21:18.262Z,55.18
2023-06-19T15:22:18.292Z,54.98
2023-06-19T15:23:18.336Z,55.20
2023-06-19T15:24:18.403Z,54.71
2023-06-19T15:25:18.414Z,54.91
2023-06-19T15:26:18.448Z,54.61
2023-06-19T15:27:18.480Z,54.71
2023-06-19T15:28:18.523Z,55.00
2023-06-19T15:29:18.558Z,54.81
2023-06-19T15:31:18.637Z,54.61
2023-06-19T15:32:18.718Z,54.81
2023-06-19T15:33:19.314Z,54.32
2023-06-19T15:34:18.752Z,54.81
2023-06-19T15:35:18.784Z,54.35
2023-06-19T15:36:18.825Z,54.15
2023-06-19T15:37:18.859Z,54.44
2023-06-19T15:38:19.511Z,54.44
2023-06-19T15:39:18.938Z,53.76
2023-06-19T15:40:18.973Z,53.66
2023-06-19T15:42:19.057Z,53.56
2023-06-19T15:43:19.096Z,53.69
2023-06-19T15:44:19.129Z,53.69
2023-06-19T15:45:19.174Z,53.98
2023-06-19T15:46:19.225Z,53.59
2023-06-19T15:47:19.254Z,53.00
2023-06-19T15:48:19.301Z,53.20
2023-06-19T15:49:19.334Z,52.91
2023-06-19T15:50:19.360Z,53.59
2023-06-19T15:51:19.713Z,53.13
2023-06-19T15:52:19.438Z,53.72
2023-06-19T15:53:19.473Z,53.33
2023-06-19T15:54:19.530Z,53.33
2023-06-19T15:55:19.558Z,53.62
2023-06-19T15:56:19.595Z,53.23
2023-06-19T15:57:19.627Z,52.93
2023-06-19T15:59:19.709Z,52.93
2023-06-19T16:00:19.754Z,52.93
2023-06-19T16:01:19.943Z,52.17
2023-06-19T16:02:19.847Z,52.73
2023-06-19T16:03:19.945Z,52.93
2023-06-19T16:04:20.227Z,52.44
2023-06-19T16:05:19.965Z,52.96
2023-06-19T16:06:19.995Z,52.56
2023-06-19T16:07:20.041Z,53.25
2023-06-19T16:08:20.055Z,52.17
2023-06-19T16:09:20.115Z,52.56
2023-06-19T16:10:20.143Z,52.27
2023-06-19T16:11:20.173Z,52.17
2023-06-19T16:12:20.229Z,52.27
2023-06-19T16:13:20.259Z,52.27
2023-06-19T16:14:20.292Z,52.89
2023-06-19T16:15:20.333Z,52.40
2023-06-19T16:16:20.420Z,52.08
2023-06-19T16:17:20.731Z,52.69
2023-06-19T16:18:20.457Z,52.20
2023-06-19T16:19:21.595Z,52.40
2023-06-19T16:21:20.590Z,52.40
2023-06-19T16:22:20.605Z,52.10
2023-06-19T16:23:20.664Z,52.00
2023-06-19T16:24:20.716Z,52.10
2023-06-19T16:25:20.732Z,52.00
2023-06-19T16:26:20.772Z,52.10
2023-06-19T16:27:20.828Z,51.90
2023-06-19T16:28:20.850Z,51.71
2023-06-19T16:29:21.196Z,51.90
2023-06-19T16:30:20.928Z,51.22
2023-06-19T16:31:21.067Z,51.22
2023-06-19T16:32:21.101Z,51.51
2023-06-19T16:33:21.131Z,50.93
2023-06-19T16:34:21.088Z,51.12
2023-06-19T16:35:21.140Z,51.15
2023-06-19T16:36:21.469Z,50.95
2023-06-19T16:37:21.251Z,51.15
2023-06-19T16:38:21.265Z,51.34
2023-06-19T16:39:21.325Z,51.15
2023-06-19T16:40:21.565Z,51.51
2023-06-19T16:41:21.400Z,52.00
2023-06-19T16:42:21.444Z,51.93
2023-06-19T16:43:21.769Z,52.33
2023-06-19T16:44:21.495Z,51.83
2023-06-19T16:45:21.546Z,52.33
2023-06-19T16:46:21.667Z,51.25
2023-06-19T16:47:21.644Z,50.85
2023-06-19T16:48:21.655Z,51.15
2023-06-19T16:49:21.895Z,51.64
2023-06-19T16:50:22.172Z,52.13
2023-06-19T16:51:21.781Z,51.64
2023-06-19T16:52:21.808Z,51.73
2023-06-19T16:53:21.917Z,51.44
2023-06-19T16:54:21.895Z,51.05
2023-06-19T16:55:21.935Z,50.95
2023-06-19T16:56:21.980Z,51.54
2023-06-19T16:57:22.322Z,51.34
2023-06-19T16:58:22.054Z,51.83
2023-06-19T16:59:22.104Z,51.73
2023-06-19T17:00:22.357Z,51.93
2023-06-19T17:01:22.207Z,52.03
2023-06-19T17:02:22.309Z,52.03
2023-06-19T17:03:22.386Z,51.44
2023-06-19T17:04:22.301Z,52.03
2023-06-19T17:05:22.354Z,51.93
2023-06-19T17:06:23.951Z,51.83
2023-06-19T17:07:22.447Z,51.93
2023-06-19T17:08:22.504Z,51.25
2023-06-19T17:09:22.522Z,51.34
2023-06-19T17:10:23.297Z,51.93
2023-06-19T17:12:22.671Z,51.73
2023-06-19T17:13:22.656Z,52.03
2023-06-19T17:14:22.704Z,51.64
2023-06-19T17:15:22.740Z,51.96
2023-06-19T17:16:22.819Z,51.83
2023-06-19T17:17:23.176Z,51.46
2023-06-19T17:18:22.876Z,51.25
2023-06-19T17:19:22.909Z,50.68
2023-06-19T17:20:23.134Z,51.34
2023-06-19T17:23:23.066Z,50.85
2023-06-19T17:24:23.144Z,51.25
2023-06-19T17:25:23.177Z,51.54
2023-06-19T17:26:23.189Z,51.15
2023-06-19T17:28:23.262Z,51.05
2023-06-19T17:29:23.313Z,51.15
2023-06-19T17:30:24.033Z,51.05
2023-06-19T17:31:23.390Z,51.34
2023-06-19T17:32:23.454Z,51.44
2023-06-19T17:33:23.479Z,51.15
2023-06-19T17:34:23.512Z,51.25
2023-06-19T17:35:24.503Z,51.32
2023-06-19T17:36:23.890Z,52.30
2023-06-19T17:37:23.644Z,52.30
2023-06-19T17:38:23.676Z,52.20
2023-06-19T17:39:23.768Z,52.20
2023-06-19T17:40:24.180Z,51.90
2023-06-19T17:41:23.900Z,51.71
2023-06-19T17:42:24.079Z,52.00
2023-06-19T17:44:23.924Z,51.90
2023-06-19T17:45:23.958Z,51.61
2023-06-19T17:46:24.018Z,51.90
2023-06-19T17:47:24.076Z,51.51
2023-06-19T17:48:24.085Z,51.90
2023-06-19T17:49:24.412Z,52.00
2023-06-19T17:50:24.476Z,52.37
2023-06-19T17:51:24.191Z,52.08
2023-06-19T17:52:24.245Z,51.90
2023-06-19T17:54:24.321Z,51.78
2023-06-19T17:55:24.352Z,52.08
2023-06-19T17:56:24.759Z,52.17
2023-06-19T17:57:24.464Z,52.27
2023-06-19T17:58:24.471Z,52.56
2023-06-19T17:59:24.513Z,52.37
2023-06-19T18:00:24.897Z,52.27
2023-06-19T18:01:24.676Z,52.47
2023-06-19T18:02:24.789Z,52.47
2023-06-19T18:03:25.115Z,52.17
2023-06-19T18:04:24.725Z,52.76
2023-06-19T18:05:24.746Z,52.54
2023-06-19T18:06:24.797Z,52.56
2023-06-19T18:07:24.828Z,52.56
2023-06-19T18:09:24.920Z,52.83
2023-06-19T18:10:25.474Z,52.93
2023-06-19T18:11:25.004Z,52.93
2023-06-19T18:12:25.024Z,52.73
2023-06-19T18:13:25.082Z,52.83
2023-06-19T18:14:25.136Z,52.93
2023-06-19T18:15:25.146Z,52.83
2023-06-19T18:16:25.265Z,53.03
2023-06-19T18:17:25.852Z,53.13
2023-06-19T18:19:25.311Z,53.91
2023-06-19T18:20:25.605Z,53.52
2023-06-19T18:21:25.375Z,53.81
2023-06-19T18:22:25.417Z,54.01
2023-06-19T18:23:25.448Z,53.81
2023-06-19T18:24:25.827Z,53.72
2023-06-19T18:25:25.531Z,53.81
2023-06-19T18:26:25.569Z,53.98
2023-06-19T18:27:25.660Z,54.17
2023-06-19T18:28:25.652Z,53.98
2023-06-19T18:29:25.757Z,54.28
2023-06-19T18:30:25.863Z,54.47
2023-06-19T18:31:26.067Z,54.57
2023-06-19T18:32:25.848Z,54.28
2023-06-19T18:33:25.846Z,54.28
2023-06-19T18:34:25.889Z,54.47
2023-06-19T18:35:25.921Z,54.38
2023-06-19T18:36:25.965Z,54.47
2023-06-19T18:37:25.997Z,54.67
2023-06-19T18:38:26.331Z,54.67
2023-06-19T18:40:26.318Z,54.86
2023-06-19T18:41:26.176Z,54.86
2023-06-19T18:42:26.196Z,55.03
2023-06-19T18:43:26.235Z,55.03
2023-06-19T18:44:26.622Z,55.22
2023-06-19T18:45:26.651Z,55.13
2023-06-19T18:46:26.507Z,55.22
2023-06-19T18:47:26.393Z,55.32
2023-06-19T18:48:26.421Z,54.93
2023-06-19T18:49:28.305Z,55.42
2023-06-19T18:50:26.949Z,55.52
2023-06-19T18:51:26.536Z,54.83
2023-06-19T18:52:28.186Z,55.22
2023-06-19T18:53:26.610Z,55.03
2023-06-19T18:54:26.651Z,55.13
2023-06-19T18:55:26.688Z,55.22
2023-06-19T18:56:26.736Z,55.32
2023-06-19T18:57:26.773Z,54.93
2023-06-19T18:58:26.807Z,55.52
2023-06-19T18:59:27.144Z,54.93
2023-06-19T19:02:27.204Z,55.42
2023-06-19T19:03:27.151Z,55.22
2023-06-19T19:04:27.031Z,55.22
2023-06-19T19:05:27.377Z,55.32
2023-06-19T19:06:27.107Z,55.40
2023-06-19T19:07:27.149Z,55.79
2023-06-19T19:08:27.215Z,55.40
2023-06-19T19:09:27.240Z,55.10
2023-06-19T19:10:27.652Z,55.42
2023-06-19T19:11:27.675Z,55.59
2023-06-19T19:12:27.343Z,55.40
2023-06-19T19:13:27.381Z,55.30
2023-06-19T19:14:27.423Z,55.40
2023-06-19T19:15:27.464Z,55.40
2023-06-19T19:16:27.532Z,55.30
2023-06-19T19:17:27.856Z,55.30
2023-06-19T19:18:27.593Z,55.69
2023-06-19T19:19:27.608Z,55.69
2023-06-19T19:20:27.816Z,55.98
2023-06-19T19:21:27.708Z,54.71
2023-06-19T19:24:27.899Z,53.44
2023-06-19T19:25:28.272Z,53.32
2023-06-19T19:26:27.891Z,53.03
2023-06-19T19:27:27.919Z,52.95
2023-06-19T19:28:27.960Z,52.73
2023-06-19T19:29:28.010Z,52.83
2023-06-19T19:30:28.535Z,52.44
2023-06-19T19:31:28.065Z,52.83
2023-06-19T19:32:28.836Z,53.13
2023-06-19T19:33:28.264Z,53.03
2023-06-19T19:34:28.212Z,53.22
2023-06-19T19:35:28.226Z,53.22
2023-06-19T19:36:28.250Z,52.25
2023-06-19T19:37:28.293Z,52.83
2023-06-19T19:38:28.582Z,52.83
2023-06-19T19:40:28.440Z,52.73
2023-06-19T19:41:28.442Z,52.83
2023-06-19T19:42:28.588Z,53.03
2023-06-19T19:43:28.520Z,52.80
2023-06-19T19:44:28.626Z,52.80
2023-06-19T19:46:28.973Z,53.00
2023-06-19T19:47:28.673Z,52.80
2023-06-19T19:48:28.737Z,52.80
2023-06-19T19:49:28.741Z,52.80
2023-06-19T19:50:28.793Z,52.61
2023-06-19T19:51:28.818Z,52.90
2023-06-19T19:52:29.113Z,52.80
2023-06-19T19:53:29.199Z,52.80
2023-06-19T19:55:28.965Z,53.00
2023-06-19T19:56:29.388Z,53.46
2023-06-19T19:57:29.042Z,53.36
2023-06-19T19:58:29.076Z,53.17
2023-06-19T19:59:29.117Z,53.46
2023-06-19T20:00:29.457Z,53.46
2023-06-19T20:01:29.321Z,53.17
2023-06-19T20:02:29.312Z,53.56
2023-06-19T20:03:29.377Z,53.46
2023-06-19T20:04:29.307Z,52.97
2023-06-19T20:05:29.339Z,53.27
2023-06-19T20:06:29.430Z,53.36
2023-06-19T20:07:29.711Z,53.56
2023-06-19T20:08:29.457Z,53.36
2023-06-19T20:09:29.479Z,53.07
2023-06-19T20:10:29.548Z,53.75
2023-06-19T20:11:31.109Z,53.46
2023-06-19T20:12:29.595Z,53.75
2023-06-19T20:13:29.635Z,54.34
2023-06-19T20:14:29.995Z,54.44
2023-06-19T20:15:29.709Z,54.24
2023-06-19T20:16:29.820Z,54.34
2023-06-19T20:17:29.857Z,54.34
2023-06-19T20:18:30.010Z,54.73
2023-06-19T20:19:29.968Z,54.63
2023-06-19T20:20:29.911Z,54.44
2023-06-19T20:21:30.246Z,54.73
2023-06-19T20:22:29.996Z,54.63
2023-06-19T20:23:30.013Z,54.44
2023-06-19T20:24:30.103Z,54.34
2023-06-19T20:25:30.088Z,54.73
2023-06-19T20:26:32.669Z,54.63
2023-06-19T20:27:30.157Z,54.53
2023-06-19T20:28:30.505Z,54.53
2023-06-19T20:29:30.254Z,54.63
2023-06-19T20:30:30.272Z,54.83
2023-06-19T20:31:30.304Z,54.53
2023-06-19T20:32:30.536Z,54.53
2023-06-19T20:33:30.375Z,54.83
2023-06-19T20:34:30.436Z,54.73
2023-06-19T20:37:30.842Z,54.34
2023-06-19T20:39:30.655Z,54.63
2023-06-19T20:40:30.654Z,55.22
2023-06-19T20:41:30.707Z,55.32
2023-06-19T20:42:30.758Z,54.44
2023-06-19T20:43:30.752Z,54.44
2023-06-19T20:44:31.150Z,55.29
2023-06-19T20:45:30.851Z,55.41
2023-06-19T20:46:30.918Z,55.32
2023-06-19T20:47:31.101Z,55.12
2023-06-19T20:48:30.966Z,54.93
2023-06-19T20:49:30.991Z,55.19
2023-06-19T20:50:31.116Z,55.22
2023-06-19T20:51:31.350Z,55.22
2023-06-19T20:52:31.084Z,55.29
2023-06-19T20:53:31.189Z,55.29
2023-06-19T20:54:31.164Z,54.70
2023-06-19T20:55:31.327Z,54.70
2023-06-19T20:56:31.333Z,54.73
2023-06-19T20:57:31.268Z,54.50
2023-06-19T20:58:31.601Z,55.09
2023-06-19T20:59:31.462Z,55.09
2023-06-19T21:00:31.441Z,55.29
2023-06-19T21:01:31.543Z,54.50
2023-06-19T21:02:31.546Z,54.70
2023-06-19T21:03:31.791Z,54.50
2023-06-19T21:04:31.530Z,54.50
2023-06-19T21:05:31.863Z,54.60
2023-06-19T21:06:31.609Z,54.50
2023-06-19T21:07:31.646Z,54.70
2023-06-19T21:08:31.682Z,54.70
2023-06-19T21:09:31.715Z,54.60
2023-06-19T21:10:31.768Z,54.31
2023-06-19T21:11:31.820Z,54.11
2023-06-19T21:12:32.127Z,54.21
2023-06-19T21:13:31.884Z,54.31
2023-06-19T21:14:31.934Z,54.50
2023-06-19T21:15:31.935Z,54.50
2023-06-19T21:16:31.997Z,54.41
2023-06-19T21:17:32.239Z,54.31
2023-06-19T21:18:32.071Z,54.60
2023-06-19T21:19:32.380Z,54.41
2023-06-19T21:20:32.457Z,54.21
2023-06-19T21:21:32.165Z,54.11
2023-06-19T21:22:32.497Z,54.31
2023-06-19T21:23:32.228Z,53.73
2023-06-19T21:24:32.312Z,54.31
2023-06-19T21:25:32.306Z,54.02
2023-06-19T21:26:32.614Z,54.11
2023-06-19T21:27:32.405Z,54.31
2023-06-19T21:28:32.415Z,54.41
2023-06-19T21:29:32.460Z,54.41
2023-06-19T21:30:32.490Z,54.02
2023-06-19T21:31:32.539Z,54.41
2023-06-19T21:32:32.584Z,54.21
2023-06-19T21:33:32.911Z,53.83
2023-06-19T21:34:32.627Z,54.41
2023-06-19T21:35:32.697Z,54.28
2023-06-19T21:36:32.709Z,54.70
2023-06-19T21:37:32.766Z,54.80
2023-06-19T21:38:32.788Z,54.70
2023-06-19T21:39:32.874Z,54.41
2023-06-19T21:41:32.891Z,54.80
2023-06-19T21:42:32.937Z,54.50
2023-06-19T21:43:32.981Z,54.31
2023-06-19T21:44:33.006Z,54.41
2023-06-19T21:45:33.047Z,54.58
2023-06-19T21:46:33.106Z,54.31
2023-06-19T21:47:33.446Z,54.50
2023-06-19T21:48:33.150Z,54.48
2023-06-19T21:49:33.180Z,54.99
2023-06-19T21:50:33.216Z,54.87
2023-06-19T21:51:33.254Z,55.26
2023-06-19T21:52:33.291Z,55.26
2023-06-19T21:53:33.625Z,55.16
2023-06-19T21:54:33.389Z,55.75
2023-06-19T21:55:33.406Z,55.65
2023-06-19T21:56:33.446Z,55.75
2023-06-19T21:57:39.901Z,55.36
2023-06-19T21:58:33.516Z,55.36
2023-06-19T22:00:33.609Z,55.75
2023-06-19T22:01:33.628Z,55.75
2023-06-19T22:02:33.720Z,55.85
2023-06-19T22:03:33.780Z,56.04
2023-06-19T22:04:33.740Z,56.04
2023-06-19T22:05:34.084Z,55.94
2023-06-19T22:07:33.853Z,55.75
2023-06-19T22:08:42.234Z,55.65
2023-06-19T22:09:33.932Z,55.85
2023-06-19T22:10:33.964Z,55.46
2023-06-19T22:11:34.015Z,56.04
2023-06-19T22:12:34.331Z,55.85
2023-06-19T22:13:34.068Z,56.04
2023-06-19T22:14:34.100Z,55.94
2023-06-19T22:15:34.235Z,56.14
2023-06-19T22:16:34.337Z,55.85
2023-06-19T22:17:34.365Z,56.04
2023-06-19T22:19:34.292Z,56.04
2023-06-19T22:20:34.592Z,55.94
2023-06-19T22:22:34.399Z,55.94
2023-06-19T22:23:34.438Z,55.46
2023-06-19T22:24:34.555Z,55.65
2023-06-19T22:25:34.499Z,55.75
2023-06-19T22:26:34.558Z,55.85
2023-06-19T22:27:34.876Z,55.55
2023-06-19T22:28:34.610Z,55.55
2023-06-19T22:29:34.650Z,55.75
2023-06-19T22:30:34.686Z,55.26
2023-06-19T22:31:34.811Z,55.94
2023-06-19T22:32:34.841Z,55.85
2023-06-19T22:33:34.806Z,55.85
2023-06-19T22:34:35.177Z,55.85
2023-06-19T22:35:34.888Z,55.75
2023-06-19T22:36:34.905Z,55.85
2023-06-19T22:37:34.952Z,55.75
2023-06-19T22:38:34.986Z,55.65
2023-06-19T22:39:35.012Z,55.85
2023-06-19T22:40:35.062Z,55.65
2023-06-19T22:42:35.438Z,55.75
2023-06-19T22:43:35.320Z,55.36
2023-06-19T22:44:35.263Z,55.36
2023-06-19T22:45:35.318Z,55.65
2023-06-19T22:46:35.329Z,55.46
2023-06-19T22:47:35.327Z,55.75
2023-06-19T22:48:35.357Z,55.75
2023-06-19T22:49:35.676Z,55.46